Treynor, Iowa
Current Conditions -  °F | °C
As of 3:15 PM on Tuesday 21 Oct 2014 (Local Time) from KCBF Reporting Station
Clear Clear  
Wind Chill: 73°   Ceiling: Unl
Heat Index: 73°   Visibility: 10mi
Dew Point: 45°   Wind: 9mph
Humidity: 36%   Direction: 180°S
Pressure: 30.04"   Gusts: NA
Location:  41.23°N, 95.61°W
Report Text: KCBF 212015Z AUTO 18008KT 10SM CLR 23/07 A3004 RMK AO2
Loading
Personal Weather Stations






























Interactive Weather Map
Tropical Storm Tracking
New forecast layout! Learn more

10-Day Weather Forecast

Advertisements
Track Severe Weather on mobile